createdAt,value
2018-12-30T00:02:02.049Z,15.00
2018-12-30T00:04:31.074Z,14.10
2018-12-30T00:07:00.533Z,14.57
2018-12-30T00:09:29.689Z,12.53
2018-12-30T00:11:58.761Z,12.97
2018-12-30T00:14:27.783Z,14.73
2018-12-30T00:16:56.952Z,12.57
2018-12-30T00:19:27.458Z,13.40
2018-12-30T00:21:56.512Z,13.83
2018-12-30T00:24:26.000Z,14.60
2018-12-30T00:26:55.060Z,13.73
2018-12-30T00:29:24.071Z,15.93
2018-12-30T00:31:53.095Z,14.20
2018-12-30T00:34:22.128Z,14.83
2018-12-30T00:36:51.184Z,17.93
2018-12-30T00:39:20.210Z,17.37
2018-12-30T00:41:49.349Z,15.70
2018-12-30T00:44:18.370Z,16.50
2018-12-30T00:46:47.368Z,15.37
2018-12-30T00:49:16.537Z,15.23
2018-12-30T00:51:45.933Z,15.10
2018-12-30T00:54:15.038Z,13.87
2018-12-30T00:56:44.078Z,16.10
2018-12-30T00:59:13.198Z,16.80
2018-12-30T01:01:42.197Z,14.90
2018-12-30T01:04:11.610Z,18.20
2018-12-30T01:06:40.781Z,17.33
2018-12-30T01:09:09.889Z,15.37
2018-12-30T01:11:42.613Z,16.07
2018-12-30T01:14:12.030Z,15.47
2018-12-30T01:16:41.334Z,15.53
2018-12-30T01:19:12.129Z,14.30
2018-12-30T01:21:41.339Z,15.63
2018-12-30T01:24:10.336Z,15.37
2018-12-30T01:26:39.447Z,18.90
2018-12-30T01:29:08.533Z,17.33
2018-12-30T01:31:37.946Z,16.47
2018-12-30T01:34:07.189Z,16.03
2018-12-30T01:36:36.319Z,15.43
2018-12-30T01:39:07.357Z,13.87
2018-12-30T01:41:36.437Z,14.57
2018-12-30T01:44:05.575Z,15.87
2018-12-30T01:46:34.671Z,16.57
2018-12-30T01:49:03.664Z,15.17
2018-12-30T01:51:33.196Z,14.43
2018-12-30T01:54:02.423Z,13.33
2018-12-30T01:56:31.740Z,12.50
2018-12-30T01:59:00.813Z,11.93
2018-12-30T02:01:29.869Z,14.03
2018-12-30T02:03:58.929Z,13.03
2018-12-30T02:06:28.121Z,11.93
2018-12-30T02:08:57.563Z,13.10
2018-12-30T02:11:26.711Z,12.67
2018-12-30T02:13:55.730Z,11.80
2018-12-30T02:16:24.854Z,9.40
2018-12-30T02:18:53.852Z,10.90
2018-12-30T02:21:23.213Z,13.70
2018-12-30T02:23:52.226Z,10.57
2018-12-30T02:26:22.297Z,10.60
2018-12-30T02:28:51.377Z,13.83
2018-12-30T02:31:20.491Z,12.67
2018-12-30T02:33:49.951Z,14.97
2018-12-30T02:36:19.081Z,12.97
2018-12-30T02:38:48.150Z,13.27
2018-12-30T02:41:17.331Z,12.00
2018-12-30T02:43:46.414Z,15.77
2018-12-30T02:46:15.826Z,12.73
2018-12-30T02:48:44.849Z,10.73
2018-12-30T02:51:13.934Z,11.87
2018-12-30T02:53:42.997Z,10.43
2018-12-30T02:56:11.968Z,10.43
2018-12-30T02:58:47.093Z,9.30
2018-12-30T03:01:16.080Z,10.07
2018-12-30T03:03:45.190Z,8.90
2018-12-30T03:06:14.302Z,9.37
2018-12-30T03:08:43.616Z,9.83
2018-12-30T03:11:14.026Z,13.93
2018-12-30T03:13:43.220Z,9.93
2018-12-30T03:16:12.334Z,10.43
2018-12-30T03:18:41.285Z,8.20
2018-12-30T03:21:10.356Z,9.83
2018-12-30T03:23:39.345Z,6.70
2018-12-30T03:26:08.402Z,5.97
2018-12-30T03:28:38.504Z,6.20
2018-12-30T03:31:07.583Z,6.13
2018-12-30T03:33:36.646Z,6.70
2018-12-30T03:36:05.718Z,5.47
2018-12-30T03:38:34.793Z,5.30
2018-12-30T03:41:03.935Z,5.13
2018-12-30T03:43:33.018Z,4.60
2018-12-30T03:46:02.073Z,5.30
2018-12-30T03:48:31.088Z,4.10
2018-12-30T03:51:00.173Z,4.77
2018-12-30T03:53:29.478Z,4.03
2018-12-30T03:55:58.615Z,3.93
2018-12-30T03:58:27.769Z,3.03
2018-12-30T04:00:57.139Z,3.13
2018-12-30T04:03:28.181Z,3.97
2018-12-30T04:05:57.283Z,3.17
2018-12-30T04:08:26.528Z,3.50
2018-12-30T04:10:55.629Z,2.93
2018-12-30T04:13:24.622Z,3.27
2018-12-30T04:15:53.633Z,3.37
2018-12-30T04:18:22.650Z,3.30
2018-12-30T04:20:51.714Z,2.60
2018-12-30T04:23:20.858Z,3.50
2018-12-30T04:25:49.917Z,3.37
2018-12-30T04:28:18.883Z,4.70
2018-12-30T04:30:48.011Z,3.13
2018-12-30T04:33:17.110Z,2.87
2018-12-30T04:35:46.097Z,2.77
2018-12-30T04:38:15.121Z,2.60
2018-12-30T04:40:44.212Z,4.47
2018-12-30T04:43:13.262Z,3.10
2018-12-30T04:45:42.375Z,4.83
2018-12-30T04:48:11.366Z,3.63
2018-12-30T04:50:40.387Z,2.97
2018-12-30T04:53:09.431Z,3.47
2018-12-30T04:55:38.429Z,2.60
2018-12-30T04:58:07.679Z,2.60
2018-12-30T05:00:36.713Z,2.47
2018-12-30T05:03:05.813Z,2.17
2018-12-30T05:05:34.801Z,2.23
2018-12-30T05:08:03.779Z,3.00
2018-12-30T05:10:32.792Z,1.70
2018-12-30T05:13:01.844Z,2.30
2018-12-30T05:15:30.934Z,1.63
2018-12-30T05:18:00.018Z,1.53
2018-12-30T05:20:29.027Z,1.70
2018-12-30T05:22:58.028Z,1.27
2018-12-30T05:25:27.137Z,1.53
2018-12-30T05:27:56.216Z,1.57
2018-12-30T05:30:25.277Z,0.90
2018-12-30T05:32:54.321Z,1.37
2018-12-30T05:35:23.418Z,1.00
2018-12-30T05:37:52.469Z,0.80
2018-12-30T05:40:21.533Z,1.50
2018-12-30T05:42:50.619Z,1.27
2018-12-30T05:45:19.685Z,2.03
2018-12-30T05:47:48.669Z,0.60
2018-12-30T05:50:17.760Z,0.70
2018-12-30T05:52:46.820Z,0.60
2018-12-30T05:55:15.876Z,0.97
2018-12-30T05:57:44.925Z,0.70
2018-12-30T06:00:16.070Z,0.73
2018-12-30T06:02:44.752Z,2.30
2018-12-30T06:05:13.801Z,0.80
2018-12-30T06:07:42.871Z,0.80
2018-12-30T06:10:12.009Z,1.00
2018-12-30T06:12:41.024Z,1.87
2018-12-30T06:15:10.101Z,1.70
2018-12-30T06:17:39.077Z,0.87
2018-12-30T06:20:09.937Z,1.37
2018-12-30T06:22:38.941Z,0.67
2018-12-30T06:25:08.425Z,1.47
2018-12-30T06:27:37.432Z,0.90
2018-12-30T06:30:06.879Z,0.87
2018-12-30T06:32:35.882Z,1.20
2018-12-30T06:35:05.180Z,2.23
2018-12-30T06:37:34.282Z,1.17
2018-12-30T06:40:11.103Z,2.30
2018-12-30T06:42:34.104Z,1.47
2018-12-30T06:45:03.218Z,1.07
2018-12-30T06:47:32.265Z,3.67
2018-12-30T06:50:01.304Z,1.20
2018-12-30T06:52:30.439Z,2.73
2018-12-30T06:54:59.564Z,1.40
2018-12-30T06:57:28.564Z,2.13
2018-12-30T06:59:58.393Z,1.87
2018-12-30T07:02:28.742Z,3.30
2018-12-30T07:04:57.751Z,4.20
2018-12-30T07:07:26.854Z,1.87
2018-12-30T07:09:55.850Z,2.60
2018-12-30T07:12:24.887Z,3.00
2018-12-30T07:14:54.042Z,4.10
2018-12-30T07:17:23.157Z,4.67
2018-12-30T07:19:52.137Z,3.63
2018-12-30T07:22:21.159Z,3.00
2018-12-30T07:24:50.125Z,2.97
2018-12-30T07:27:19.218Z,3.90
2018-12-30T07:29:48.336Z,2.93
2018-12-30T07:32:17.396Z,3.93
2018-12-30T07:34:46.401Z,8.20
2018-12-30T07:37:15.516Z,3.60
2018-12-30T07:39:44.513Z,5.23
2018-12-30T07:42:13.505Z,4.07
2018-12-30T07:44:42.892Z,3.43
2018-12-30T07:47:11.870Z,4.63
2018-12-30T07:49:42.875Z,2.90
2018-12-30T07:52:11.913Z,4.67
2018-12-30T07:54:41.018Z,4.10
2018-12-30T07:57:10.049Z,3.40
2018-12-30T07:59:39.235Z,4.03
2018-12-30T08:02:08.225Z,4.80
2018-12-30T08:04:39.089Z,4.33
2018-12-30T08:07:08.205Z,2.93
2018-12-30T08:09:37.172Z,3.67
2018-12-30T08:12:06.241Z,4.37
2018-12-30T08:14:35.476Z,3.77
2018-12-30T08:17:04.589Z,3.13
2018-12-30T08:19:33.696Z,6.67
2018-12-30T08:22:02.677Z,6.80
2018-12-30T08:24:31.718Z,4.70
2018-12-30T08:27:00.793Z,5.67
2018-12-30T08:29:29.837Z,5.03
2018-12-30T08:31:58.962Z,5.67
2018-12-30T08:34:27.972Z,4.70
2018-12-30T08:36:57.092Z,5.83
2018-12-30T08:39:26.088Z,7.53
2018-12-30T08:41:55.152Z,3.90
2018-12-30T08:44:24.162Z,4.67
2018-12-30T08:46:53.276Z,4.57
2018-12-30T08:49:22.299Z,3.90
2018-12-30T08:51:51.338Z,3.80
2018-12-30T08:54:20.320Z,4.80
2018-12-30T08:56:49.303Z,6.50
2018-12-30T08:59:18.426Z,4.17
2018-12-30T09:01:48.577Z,3.87
2018-12-30T09:04:17.641Z,8.97
2018-12-30T09:06:46.712Z,6.00
2018-12-30T09:09:15.829Z,3.27
2018-12-30T09:11:44.831Z,2.60
2018-12-30T09:14:13.873Z,7.40
2018-12-30T09:16:43.064Z,3.83
2018-12-30T09:19:12.240Z,5.03
2018-12-30T09:21:41.309Z,3.50
2018-12-30T09:24:10.301Z,10.17
2018-12-30T09:26:39.349Z,3.53
2018-12-30T09:29:08.453Z,4.77
2018-12-30T09:31:38.701Z,5.17
2018-12-30T09:34:07.913Z,3.67
2018-12-30T09:36:36.977Z,5.90
2018-12-30T09:39:07.772Z,6.83
2018-12-30T09:41:36.785Z,4.37
2018-12-30T09:44:05.877Z,3.27
2018-12-30T09:46:36.187Z,4.23
2018-12-30T09:49:05.377Z,9.10
2018-12-30T09:51:34.371Z,4.63
2018-12-30T09:54:03.388Z,10.10
2018-12-30T09:56:32.515Z,7.90
2018-12-30T09:59:01.581Z,9.87
2018-12-30T10:01:30.654Z,6.93
2018-12-30T10:03:59.730Z,6.63
2018-12-30T10:06:28.873Z,3.20
2018-12-30T10:08:57.899Z,8.67
2018-12-30T10:11:26.910Z,6.57
2018-12-30T10:13:55.926Z,6.13
2018-12-30T10:16:25.049Z,6.63
2018-12-30T10:18:54.225Z,6.43
2018-12-30T10:21:24.014Z,4.57
2018-12-30T10:23:53.298Z,5.07
2018-12-30T10:26:22.277Z,4.53
2018-12-30T10:28:51.354Z,5.80
2018-12-30T10:31:20.404Z,8.60
2018-12-30T10:33:49.516Z,7.80
2018-12-30T10:36:18.607Z,10.00
2018-12-30T10:38:47.624Z,6.27
2018-12-30T10:41:16.701Z,9.00
2018-12-30T10:43:45.721Z,6.10
2018-12-30T10:46:14.789Z,7.27
2018-12-30T10:48:43.805Z,5.97
2018-12-30T10:51:12.854Z,8.60
2018-12-30T10:53:42.210Z,8.70
2018-12-30T10:56:11.185Z,7.97
2018-12-30T10:58:40.296Z,6.27
2018-12-30T11:01:09.332Z,6.40
2018-12-30T11:03:38.462Z,6.53
2018-12-30T11:06:07.725Z,7.03
2018-12-30T11:08:36.924Z,4.00
2018-12-30T11:11:06.078Z,8.37
2018-12-30T11:13:35.214Z,6.17
2018-12-30T11:16:04.425Z,6.47
2018-12-30T11:18:33.722Z,8.37
2018-12-30T11:21:02.869Z,6.50
2018-12-30T11:23:31.977Z,6.20
2018-12-30T11:26:01.169Z,7.33
2018-12-30T11:28:30.365Z,6.00
2018-12-30T11:30:59.766Z,6.83
2018-12-30T11:33:29.067Z,5.50
2018-12-30T11:35:58.378Z,5.93
2018-12-30T11:38:27.651Z,6.83
2018-12-30T11:40:56.764Z,6.57
2018-12-30T11:43:25.962Z,4.20
2018-12-30T11:45:55.105Z,7.70
2018-12-30T11:48:24.334Z,5.53
2018-12-30T11:50:53.436Z,8.60
2018-12-30T11:53:22.607Z,6.50
2018-12-30T11:55:51.812Z,9.17
2018-12-30T11:58:20.909Z,7.70
2018-12-30T12:00:50.186Z,10.73
2018-12-30T12:03:19.320Z,8.00
2018-12-30T12:05:49.730Z,5.10
2018-12-30T12:08:21.198Z,7.30
2018-12-30T12:10:50.250Z,7.00
2018-12-30T12:13:19.436Z,8.27
2018-12-30T12:15:48.615Z,4.10
2018-12-30T12:18:17.805Z,5.67
2018-12-30T12:20:46.865Z,5.83
2018-12-30T12:23:15.882Z,6.57
2018-12-30T12:25:45.106Z,8.37
2018-12-30T12:28:16.466Z,7.73
2018-12-30T12:30:45.747Z,5.63
2018-12-30T12:33:15.169Z,6.13
2018-12-30T12:35:44.644Z,7.17
2018-12-30T12:38:14.794Z,5.03
2018-12-30T12:40:45.850Z,7.53
2018-12-30T12:43:15.442Z,7.10
2018-12-30T12:45:44.700Z,7.63
2018-12-30T12:48:15.743Z,6.33
2018-12-30T12:50:45.075Z,6.10
2018-12-30T12:53:14.394Z,6.23
2018-12-30T12:55:43.829Z,6.80
2018-12-30T12:58:12.983Z,8.40
2018-12-30T13:00:42.448Z,8.70
2018-12-30T13:03:11.649Z,7.00
2018-12-30T13:05:40.743Z,4.27
2018-12-30T13:08:10.129Z,7.23
2018-12-30T13:10:39.331Z,7.57
2018-12-30T13:13:08.778Z,7.53
2018-12-30T13:15:38.314Z,5.83
2018-12-30T13:18:07.730Z,6.23
2018-12-30T13:20:36.934Z,6.70
2018-12-30T13:23:05.916Z,9.50
2018-12-30T13:25:35.078Z,7.50
2018-12-30T13:28:04.417Z,8.13
2018-12-30T13:30:33.853Z,7.07
2018-12-30T13:33:02.870Z,6.23
2018-12-30T13:35:32.080Z,8.23
2018-12-30T13:38:01.205Z,6.33
2018-12-30T13:40:30.202Z,8.87
2018-12-30T13:42:59.421Z,7.03
2018-12-30T13:45:30.038Z,9.90
2018-12-30T13:47:59.962Z,8.77
2018-12-30T13:50:29.835Z,12.20
2018-12-30T13:52:59.357Z,15.70
2018-12-30T13:55:28.585Z,10.03
2018-12-30T13:57:57.591Z,24.87
2018-12-30T14:00:26.757Z,10.03
2018-12-30T14:02:55.768Z,12.33
2018-12-30T14:05:25.453Z,7.30
2018-12-30T14:07:54.551Z,7.73
2018-12-30T14:10:23.770Z,7.43
2018-12-30T14:12:52.965Z,9.07
2018-12-30T14:15:22.264Z,11.50
2018-12-30T14:17:53.215Z,10.50
2018-12-30T14:20:22.851Z,14.13
2018-12-30T14:22:52.314Z,37.97
2018-12-30T14:25:21.392Z,18.37
2018-12-30T14:27:50.547Z,33.17
2018-12-30T14:30:22.399Z,16.67
2018-12-30T14:32:51.595Z,43.17
2018-12-30T14:35:20.635Z,25.20
2018-12-30T14:37:49.787Z,7.63
2018-12-30T14:40:18.904Z,9.37
2018-12-30T14:42:48.057Z,9.03
2018-12-30T14:45:17.082Z,6.63
2018-12-30T14:47:46.183Z,9.00
2018-12-30T14:50:16.518Z,7.57
2018-12-30T14:52:46.174Z,10.23
2018-12-30T14:55:15.279Z,10.17
2018-12-30T14:57:44.402Z,9.10
2018-12-30T15:00:13.658Z,8.90
2018-12-30T15:02:42.767Z,7.10
2018-12-30T15:05:11.918Z,8.17
2018-12-30T15:07:41.041Z,6.40
2018-12-30T15:10:10.192Z,8.10
2018-12-30T15:12:39.365Z,7.27
2018-12-30T15:15:08.668Z,10.40
2018-12-30T15:17:37.673Z,7.63
2018-12-30T15:20:07.503Z,7.67
2018-12-30T15:22:36.581Z,8.13
2018-12-30T15:25:11.545Z,9.07
2018-12-30T15:27:36.464Z,10.80
2018-12-30T15:30:06.896Z,5.93
2018-12-30T15:32:35.904Z,6.80
2018-12-30T15:35:05.217Z,6.43
2018-12-30T15:37:34.314Z,9.53
2018-12-30T15:40:03.859Z,9.03
2018-12-30T15:42:32.915Z,6.43
2018-12-30T15:45:01.984Z,8.93
2018-12-30T15:47:30.968Z,8.77
2018-12-30T15:50:00.243Z,8.53
2018-12-30T15:52:29.422Z,7.23
2018-12-30T15:55:00.554Z,9.87
2018-12-30T15:57:29.222Z,8.73
2018-12-30T15:59:58.266Z,10.87
2018-12-30T16:02:27.437Z,9.60
2018-12-30T16:04:56.619Z,11.20
2018-12-30T16:07:26.590Z,7.83
2018-12-30T16:09:55.685Z,7.67
2018-12-30T16:12:24.771Z,8.23
2018-12-30T16:14:53.921Z,11.70
2018-12-30T16:17:23.006Z,13.03
2018-12-30T16:19:52.089Z,10.83
2018-12-30T16:22:21.199Z,10.33
2018-12-30T16:24:50.501Z,7.53
2018-12-30T16:27:25.245Z,13.03
2018-12-30T16:29:54.352Z,8.40
2018-12-30T16:32:23.535Z,10.63
2018-12-30T16:34:52.762Z,13.37
2018-12-30T16:37:21.849Z,12.90
2018-12-30T16:39:51.045Z,11.70
2018-12-30T16:42:20.599Z,8.83
2018-12-30T16:44:49.750Z,14.30
2018-12-30T16:47:18.897Z,10.23
2018-12-30T16:49:48.200Z,10.27
2018-12-30T16:52:17.373Z,9.50
2018-12-30T16:54:46.618Z,12.00
2018-12-30T16:57:15.716Z,11.53
2018-12-30T16:59:45.053Z,12.13
2018-12-30T17:02:14.309Z,12.13
2018-12-30T17:04:43.462Z,11.97
2018-12-30T17:07:12.736Z,7.57
2018-12-30T17:09:41.912Z,9.40
2018-12-30T17:12:11.078Z,12.07
2018-12-30T17:14:40.345Z,12.50
2018-12-30T17:17:09.582Z,8.53
2018-12-30T17:19:38.738Z,9.57
2018-12-30T17:22:08.101Z,10.37
2018-12-30T17:24:37.133Z,8.13
2018-12-30T17:27:06.237Z,10.03
2018-12-30T17:29:35.587Z,7.40
2018-12-30T17:32:05.581Z,8.57
2018-12-30T17:34:34.885Z,17.40
2018-12-30T17:37:04.060Z,10.80
2018-12-30T17:39:33.345Z,6.77
2018-12-30T17:42:02.418Z,7.13
2018-12-30T17:44:31.640Z,7.77
2018-12-30T17:47:00.730Z,7.40
2018-12-30T17:49:29.961Z,10.70
2018-12-30T17:51:59.077Z,9.60
2018-12-30T17:54:28.254Z,8.63
2018-12-30T17:56:57.385Z,11.83
2018-12-30T17:59:26.558Z,7.83
2018-12-30T18:01:55.681Z,7.90
2018-12-30T18:04:24.716Z,9.90
2018-12-30T18:06:53.862Z,9.50
2018-12-30T18:09:22.930Z,11.23
2018-12-30T18:11:52.028Z,13.17
2018-12-30T18:14:21.301Z,15.63
2018-12-30T18:16:50.397Z,11.23
2018-12-30T18:19:19.530Z,11.40
2018-12-30T18:21:49.053Z,9.20
2018-12-30T18:24:18.307Z,10.67
2018-12-30T18:26:47.470Z,11.73
2018-12-30T18:29:16.658Z,8.27
2018-12-30T18:31:45.914Z,9.37
2018-12-30T18:34:15.317Z,10.53
2018-12-30T18:36:44.717Z,10.80
2018-12-30T18:39:13.863Z,8.23
2018-12-30T18:41:43.434Z,13.97
2018-12-30T18:44:12.674Z,10.50
2018-12-30T18:46:41.844Z,11.83
2018-12-30T18:49:10.993Z,11.73
2018-12-30T18:51:40.130Z,10.63
2018-12-30T18:54:09.534Z,12.73
2018-12-30T18:56:38.697Z,12.63
2018-12-30T18:59:07.766Z,12.30
2018-12-30T19:01:36.982Z,9.37
2018-12-30T19:04:06.415Z,14.67
2018-12-30T19:06:35.712Z,12.47
2018-12-30T19:09:06.657Z,13.30
2018-12-30T19:11:35.809Z,17.27
2018-12-30T19:14:05.541Z,10.37
2018-12-30T19:16:34.737Z,12.60
2018-12-30T19:19:03.986Z,11.20
2018-12-30T19:21:33.484Z,10.23
2018-12-30T19:24:02.596Z,14.60
2018-12-30T19:26:31.635Z,11.93
2018-12-30T19:29:00.940Z,14.50
2018-12-30T19:31:30.176Z,10.43
2018-12-30T19:33:59.635Z,15.03
2018-12-30T19:36:28.898Z,11.90
2018-12-30T19:38:58.107Z,11.00
2018-12-30T19:41:27.173Z,12.07
2018-12-30T19:43:56.572Z,10.37
2018-12-30T19:46:25.632Z,7.53
2018-12-30T19:48:54.905Z,11.27
2018-12-30T19:51:23.914Z,9.73
2018-12-30T19:53:53.143Z,8.80
2018-12-30T19:56:22.863Z,11.03
2018-12-30T19:58:52.163Z,10.80
2018-12-30T20:01:21.324Z,10.70
2018-12-30T20:03:52.194Z,12.20
2018-12-30T20:06:21.492Z,13.73
2018-12-30T20:08:50.917Z,12.63
2018-12-30T20:11:20.370Z,10.03
2018-12-30T20:13:49.606Z,14.93
2018-12-30T20:16:19.305Z,18.70
2018-12-30T20:18:50.050Z,14.87
2018-12-30T20:21:19.080Z,10.57
2018-12-30T20:23:48.785Z,12.97
2018-12-30T20:26:18.026Z,17.77
2018-12-30T20:28:47.561Z,14.37
2018-12-30T20:31:16.902Z,9.33
2018-12-30T20:33:45.987Z,11.20
2018-12-30T20:36:15.669Z,13.90
2018-12-30T20:38:44.858Z,11.27
2018-12-30T20:41:13.905Z,12.93
2018-12-30T20:43:43.497Z,12.87
2018-12-30T20:46:12.713Z,15.03
2018-12-30T20:48:42.142Z,11.17
2018-12-30T20:51:11.621Z,17.90
2018-12-30T20:53:40.811Z,12.27
2018-12-30T20:56:10.085Z,13.30
2018-12-30T20:58:39.777Z,14.87
2018-12-30T21:01:08.895Z,18.10
2018-12-30T21:03:38.247Z,10.53
2018-12-30T21:06:07.701Z,13.20
2018-12-30T21:08:37.056Z,16.77
2018-12-30T21:11:06.105Z,14.17
2018-12-30T21:13:35.693Z,15.33
2018-12-30T21:16:04.874Z,11.67
2018-12-30T21:18:34.073Z,10.77
2018-12-30T21:21:03.302Z,14.07
2018-12-30T21:23:33.607Z,14.50
2018-12-30T21:26:02.909Z,12.37
2018-12-30T21:28:32.097Z,15.97
2018-12-30T21:31:01.224Z,11.87
2018-12-30T21:33:30.655Z,13.77
2018-12-30T21:36:00.113Z,13.57
2018-12-30T21:38:29.338Z,11.07
2018-12-30T21:40:59.082Z,10.07
2018-12-30T21:43:28.112Z,10.43
2018-12-30T21:45:57.630Z,12.17
2018-12-30T21:48:27.126Z,15.00
2018-12-30T21:50:56.533Z,14.03
2018-12-30T21:53:25.946Z,14.63
2018-12-30T21:55:55.144Z,16.40
2018-12-30T21:58:25.292Z,14.40
2018-12-30T22:00:54.625Z,18.90
2018-12-30T22:03:24.159Z,12.27
2018-12-30T22:05:53.730Z,14.10
2018-12-30T22:08:22.910Z,15.03
2018-12-30T22:10:52.025Z,13.07
2018-12-30T22:13:21.192Z,12.30
2018-12-30T22:15:50.260Z,16.07
2018-12-30T22:18:19.463Z,13.87
2018-12-30T22:20:48.581Z,12.13
2018-12-30T22:23:17.996Z,16.63
2018-12-30T22:25:47.401Z,16.03
2018-12-30T22:28:16.699Z,17.47
2018-12-30T22:30:45.984Z,14.77
2018-12-30T22:33:15.324Z,17.87
2018-12-30T22:35:44.341Z,17.27
2018-12-30T22:38:14.535Z,17.07
2018-12-30T22:40:43.578Z,13.87
2018-12-30T22:43:14.603Z,16.77
2018-12-30T22:45:43.772Z,17.30
2018-12-30T22:48:12.894Z,12.37
2018-12-30T22:50:42.014Z,14.40
2018-12-30T22:53:11.109Z,14.73
2018-12-30T22:55:40.153Z,10.20
2018-12-30T22:58:10.204Z,13.83
2018-12-30T23:00:57.870Z,14.30
2018-12-30T23:03:27.455Z,14.60
2018-12-30T23:05:56.858Z,18.23
2018-12-30T23:08:25.981Z,18.67
2018-12-30T23:10:55.558Z,15.40
2018-12-30T23:13:24.748Z,18.63
2018-12-30T23:15:53.934Z,15.07
2018-12-30T23:18:23.063Z,12.70
2018-12-30T23:20:52.072Z,19.87
2018-12-30T23:23:21.328Z,16.33
2018-12-30T23:25:50.659Z,16.87
2018-12-30T23:28:19.773Z,18.20
2018-12-30T23:30:48.765Z,19.40
2018-12-30T23:33:18.134Z,14.67
2018-12-30T23:35:47.245Z,16.00
2018-12-30T23:38:17.034Z,16.57
2018-12-30T23:40:46.639Z,17.87
2018-12-30T23:43:15.836Z,21.43
2018-12-30T23:45:44.930Z,15.93
2018-12-30T23:48:14.062Z,14.93
2018-12-30T23:50:44.369Z,16.60
2018-12-30T23:53:13.547Z,19.20
2018-12-30T23:55:43.077Z,14.90
2018-12-30T23:58:12.453Z,14.33
